createdAt,value
2019-01-10T00:01:23.990Z,-1.50
2019-01-10T00:03:54.121Z,-1.50
2019-01-10T00:06:22.052Z,-1.50
2019-01-10T00:08:50.332Z,-1.50
2019-01-10T00:11:19.280Z,-1.50
2019-01-10T00:13:47.583Z,-1.50
2019-01-10T00:16:15.556Z,-1.50
2019-01-10T00:18:43.681Z,-1.50
2019-01-10T00:21:11.914Z,-1.50
2019-01-10T00:23:40.184Z,-1.40
2019-01-10T00:26:08.306Z,-1.50
2019-01-10T00:28:36.811Z,-1.40
2019-01-10T00:31:04.964Z,-1.40
2019-01-10T00:33:33.082Z,-1.40
2019-01-10T00:36:01.116Z,-1.40
2019-01-10T00:38:29.411Z,-1.50
2019-01-10T00:40:57.832Z,-1.50
2019-01-10T00:43:26.168Z,-1.40
2019-01-10T00:45:54.221Z,-1.50
2019-01-10T00:48:22.316Z,-1.50
2019-01-10T00:50:50.521Z,-1.50
2019-01-10T00:53:18.823Z,-1.50
2019-01-10T00:55:47.047Z,-1.50
2019-01-10T00:58:15.399Z,-1.50
2019-01-10T01:00:43.448Z,-1.50
2019-01-10T01:03:11.759Z,-1.50
2019-01-10T01:05:39.731Z,-1.50
2019-01-10T01:08:08.121Z,-1.50
2019-01-10T01:10:36.238Z,-1.50
2019-01-10T01:13:04.560Z,-1.50
2019-01-10T01:15:33.988Z,-1.50
2019-01-10T01:18:02.239Z,-1.50
2019-01-10T01:20:30.202Z,-1.50
2019-01-10T01:22:58.181Z,-1.50
2019-01-10T01:25:26.456Z,-1.50
2019-01-10T01:27:54.532Z,-1.50
2019-01-10T01:30:24.080Z,-1.50
2019-01-10T01:32:52.572Z,-1.40
2019-01-10T01:35:21.695Z,-1.40
2019-01-10T01:37:49.975Z,-1.40
2019-01-10T01:40:19.001Z,-1.40
2019-01-10T01:42:47.384Z,-1.40
2019-01-10T01:45:16.799Z,-1.40
2019-01-10T01:47:45.027Z,-1.40
2019-01-10T01:50:15.851Z,-1.40
2019-01-10T01:52:43.808Z,-1.40
2019-01-10T01:55:12.296Z,-1.40
2019-01-10T01:57:40.344Z,-1.40
2019-01-10T02:00:12.179Z,-1.40
2019-01-10T02:02:40.092Z,-1.40
2019-01-10T02:05:09.192Z,-1.40
2019-01-10T02:07:37.153Z,-1.40
2019-01-10T02:10:09.331Z,-1.40
2019-01-10T02:12:37.735Z,-1.40
2019-01-10T02:15:06.291Z,-1.40
2019-01-10T02:17:35.410Z,-1.40
2019-01-10T02:20:04.300Z,-1.40
2019-01-10T02:22:32.780Z,-1.40
2019-01-10T02:25:00.964Z,-1.40
2019-01-10T02:27:29.099Z,-1.40
2019-01-10T02:29:57.287Z,-1.40
2019-01-10T02:32:25.424Z,-1.40
2019-01-10T02:34:53.572Z,-1.40
2019-01-10T02:37:21.807Z,-1.40
2019-01-10T02:39:50.029Z,-1.40
2019-01-10T02:42:18.247Z,-1.40
2019-01-10T02:44:46.364Z,-1.40
2019-01-10T02:47:14.643Z,-1.40
2019-01-10T02:49:43.060Z,-1.40
2019-01-10T02:52:11.231Z,-1.40
2019-01-10T02:54:39.547Z,-1.40
2019-01-10T02:57:07.782Z,-1.40
2019-01-10T02:59:36.021Z,-1.40
2019-01-10T03:02:04.616Z,-1.40
2019-01-10T03:04:32.987Z,-1.40
2019-01-10T03:07:01.312Z,-1.30
2019-01-10T03:09:29.268Z,-1.40
2019-01-10T03:11:57.400Z,-1.40
2019-01-10T03:14:27.946Z,-1.40
2019-01-10T03:16:57.297Z,-1.40
2019-01-10T03:19:25.665Z,-1.40
2019-01-10T03:21:53.815Z,-1.40
2019-01-10T03:24:23.588Z,-1.40
2019-01-10T03:26:51.804Z,-1.40
2019-01-10T03:29:19.735Z,-1.40
2019-01-10T03:31:47.990Z,-1.40
2019-01-10T03:34:16.204Z,-1.40
2019-01-10T03:36:44.400Z,-1.40
2019-01-10T03:39:12.442Z,-1.30
2019-01-10T03:41:40.853Z,-1.30
2019-01-10T03:44:09.141Z,-1.40
2019-01-10T03:46:38.634Z,-1.40
2019-01-10T03:49:06.944Z,-1.40
2019-01-10T03:51:35.363Z,-1.40
2019-01-10T03:54:03.575Z,-1.40
2019-01-10T03:56:32.535Z,-1.40
2019-01-10T03:59:00.755Z,-1.40
2019-01-10T04:01:28.873Z,-1.40
2019-01-10T04:03:57.133Z,-1.40
2019-01-10T04:06:25.462Z,-1.40
2019-01-10T04:08:53.774Z,-1.30
2019-01-10T04:11:22.011Z,-1.30
2019-01-10T04:13:57.375Z,-1.30
2019-01-10T04:16:20.190Z,-1.30
2019-01-10T04:18:48.471Z,-1.30
2019-01-10T04:21:17.634Z,-1.30
2019-01-10T04:23:46.022Z,-1.30
2019-01-10T04:26:14.347Z,-1.30
2019-01-10T04:28:42.413Z,-1.30
2019-01-10T04:31:10.724Z,-1.30
2019-01-10T04:33:39.051Z,-1.30
2019-01-10T04:36:07.788Z,-1.30
2019-01-10T04:38:36.018Z,-1.30
2019-01-10T04:41:04.491Z,-1.30
2019-01-10T04:43:33.944Z,-1.30
2019-01-10T04:46:06.508Z,-1.30
2019-01-10T04:48:36.520Z,-1.30
2019-01-10T04:51:07.897Z,-1.30
2019-01-10T04:53:37.956Z,-1.30
2019-01-10T04:56:06.204Z,-1.30
2019-01-10T04:58:34.500Z,-1.30
2019-01-10T05:01:02.844Z,-1.30
2019-01-10T05:03:30.963Z,-1.30
2019-01-10T05:05:59.094Z,-1.30
2019-01-10T05:08:27.328Z,-1.30
2019-01-10T05:10:55.816Z,-1.30
2019-01-10T05:13:24.019Z,-1.20
2019-01-10T05:15:52.220Z,-1.20
2019-01-10T05:18:20.508Z,-1.20
2019-01-10T05:20:48.734Z,-1.20
2019-01-10T05:23:17.071Z,-1.20
2019-01-10T05:25:45.141Z,-1.20
2019-01-10T05:28:13.295Z,-1.20
2019-01-10T05:30:41.209Z,-1.20
2019-01-10T05:33:09.211Z,-1.20
2019-01-10T05:35:37.426Z,-1.20
2019-01-10T05:38:05.632Z,-1.20
2019-01-10T05:40:33.717Z,-1.20
2019-01-10T05:43:02.181Z,-1.20
2019-01-10T05:45:30.469Z,-1.10
2019-01-10T05:47:58.833Z,-1.20
2019-01-10T05:50:26.830Z,-1.20
2019-01-10T05:52:55.126Z,-1.10
2019-01-10T05:55:24.012Z,-1.10
2019-01-10T05:57:52.047Z,-1.10
2019-01-10T06:00:22.653Z,-1.10
2019-01-10T06:02:50.918Z,-1.10
2019-01-10T06:05:19.525Z,-1.10
2019-01-10T06:07:47.740Z,-1.00
2019-01-10T06:10:21.268Z,-1.00
2019-01-10T06:12:50.204Z,-1.10
2019-01-10T06:15:18.332Z,-1.00
2019-01-10T06:17:46.613Z,-1.10
2019-01-10T06:20:16.320Z,-1.00
2019-01-10T06:22:44.540Z,-1.00
2019-01-10T06:25:13.079Z,-1.00
2019-01-10T06:27:41.153Z,-1.10
2019-01-10T06:30:11.500Z,-1.10
2019-01-10T06:32:39.783Z,-1.00
2019-01-10T06:35:07.977Z,-1.00
2019-01-10T06:37:38.322Z,-1.00
2019-01-10T06:40:08.649Z,-1.00
2019-01-10T06:42:36.911Z,-1.00
2019-01-10T06:45:06.262Z,-1.00
2019-01-10T06:47:34.488Z,-1.00
2019-01-10T06:50:03.913Z,-1.00
2019-01-10T06:52:32.207Z,-1.00
2019-01-10T06:55:00.441Z,-1.00
2019-01-10T06:57:28.864Z,-0.90
2019-01-10T06:59:57.230Z,-1.00
2019-01-10T07:02:25.360Z,-1.00
2019-01-10T07:04:53.463Z,-1.00
2019-01-10T07:07:21.657Z,-1.00
2019-01-10T07:09:49.875Z,-1.00
2019-01-10T07:12:18.210Z,-1.00
2019-01-10T07:14:53.582Z,-1.00
2019-01-10T07:17:16.233Z,-1.00
2019-01-10T07:19:44.772Z,-1.00
2019-01-10T07:22:14.047Z,-0.90
2019-01-10T07:24:51.808Z,-0.90
2019-01-10T07:27:20.120Z,-0.90
2019-01-10T07:29:54.100Z,-0.90
2019-01-10T07:32:22.419Z,-0.80
2019-01-10T07:34:52.074Z,-0.80
2019-01-10T07:37:20.268Z,-0.80
2019-01-10T07:39:48.582Z,-0.80
2019-01-10T07:42:16.888Z,-0.80
2019-01-10T07:44:44.982Z,-0.80
2019-01-10T07:47:13.314Z,-0.80
2019-01-10T07:49:41.242Z,-0.70
2019-01-10T07:52:09.375Z,-0.70
2019-01-10T07:54:37.636Z,-0.70
2019-01-10T07:57:05.752Z,-0.70
2019-01-10T07:59:33.979Z,-0.60
2019-01-10T08:02:02.342Z,-0.70
2019-01-10T08:04:30.592Z,-0.70
2019-01-10T08:06:58.583Z,-0.70
2019-01-10T08:09:26.617Z,-0.60
2019-01-10T08:12:00.588Z,-0.60
2019-01-10T08:14:26.652Z,-0.60
2019-01-10T08:16:54.960Z,-0.50
2019-01-10T08:19:23.216Z,-0.40
2019-01-10T08:21:51.416Z,-0.40
2019-01-10T08:24:19.581Z,-0.40
2019-01-10T08:26:47.731Z,-0.30
2019-01-10T08:29:16.039Z,-0.20
2019-01-10T08:31:44.194Z,-0.20
2019-01-10T08:34:12.407Z,-0.20
2019-01-10T08:37:01.809Z,-0.20
2019-01-10T08:39:44.256Z,-0.20
2019-01-10T08:42:30.946Z,-0.20
2019-01-10T08:44:59.885Z,-0.20
2019-01-10T08:47:28.012Z,-0.10
2019-01-10T08:49:56.226Z,-0.10
2019-01-10T08:52:24.349Z,-0.10
2019-01-10T08:54:52.556Z,0.00
2019-01-10T08:57:23.138Z,0.10
2019-01-10T08:59:52.511Z,0.10
2019-01-10T09:02:20.869Z,0.20
2019-01-10T09:04:49.149Z,0.10
2019-01-10T09:07:17.399Z,0.10
2019-01-10T09:09:45.583Z,0.10
2019-01-10T09:12:13.669Z,0.10
2019-01-10T09:14:41.604Z,0.10
2019-01-10T09:17:09.890Z,0.10
2019-01-10T09:19:38.080Z,0.10
2019-01-10T09:22:07.356Z,0.20
2019-01-10T09:24:35.707Z,0.20
2019-01-10T09:27:04.004Z,0.30
2019-01-10T09:29:33.140Z,0.30
2019-01-10T09:32:01.220Z,0.30
2019-01-10T09:34:30.488Z,0.30
2019-01-10T09:36:58.762Z,0.30
2019-01-10T09:39:27.066Z,0.30
2019-01-10T09:41:55.362Z,0.40
2019-01-10T09:44:23.642Z,0.40
2019-01-10T09:46:51.824Z,0.30
2019-01-10T09:49:20.043Z,0.50
2019-01-10T09:51:48.525Z,0.60
2019-01-10T09:54:16.689Z,0.70
2019-01-10T09:56:44.960Z,0.70
2019-01-10T09:59:13.467Z,0.70
2019-01-10T10:01:41.885Z,0.80
2019-01-10T10:04:10.229Z,0.80
2019-01-10T10:06:38.281Z,0.80
2019-01-10T10:09:07.950Z,0.80
2019-01-10T10:11:36.113Z,1.00
2019-01-10T10:14:04.852Z,1.00
2019-01-10T10:16:33.092Z,1.00
2019-01-10T10:19:01.217Z,1.00
2019-01-10T10:21:29.467Z,0.90
2019-01-10T10:23:58.844Z,0.90
2019-01-10T10:26:27.052Z,0.90
2019-01-10T10:28:55.212Z,1.00
2019-01-10T10:31:23.507Z,1.00
2019-01-10T10:33:51.447Z,1.00
2019-01-10T10:36:19.735Z,1.00
2019-01-10T10:38:47.906Z,1.20
2019-01-10T10:41:15.984Z,1.10
2019-01-10T10:43:44.239Z,1.10
2019-01-10T10:46:12.361Z,1.20
2019-01-10T10:48:41.407Z,1.30
2019-01-10T10:51:09.729Z,1.20
2019-01-10T10:53:37.620Z,1.20
2019-01-10T10:56:06.784Z,1.20
2019-01-10T10:58:34.798Z,1.30
2019-01-10T11:01:03.053Z,1.10
2019-01-10T11:03:31.241Z,1.30
2019-01-10T11:05:59.152Z,1.40
2019-01-10T11:08:27.222Z,1.40
2019-01-10T11:10:55.382Z,1.40
2019-01-10T11:13:23.479Z,1.40
2019-01-10T11:15:51.711Z,1.30
2019-01-10T11:18:19.915Z,1.30
2019-01-10T11:20:48.148Z,1.30
2019-01-10T11:23:16.388Z,1.30
2019-01-10T11:25:44.471Z,1.40
2019-01-10T11:28:12.696Z,1.40
2019-01-10T11:30:40.913Z,1.30
2019-01-10T11:33:09.144Z,1.40
2019-01-10T11:35:37.220Z,1.40
2019-01-10T11:38:05.361Z,1.40
2019-01-10T11:40:33.699Z,1.20
2019-01-10T11:43:01.718Z,1.20
2019-01-10T11:45:29.918Z,1.10
2019-01-10T11:47:58.068Z,1.00
2019-01-10T11:50:26.467Z,1.10
2019-01-10T11:52:54.539Z,1.20
2019-01-10T11:55:22.753Z,1.30
2019-01-10T11:57:52.836Z,1.40
2019-01-10T12:00:26.602Z,1.50
2019-01-10T12:02:54.810Z,1.40
2019-01-10T12:05:22.723Z,1.30
2019-01-10T12:07:51.133Z,1.30
2019-01-10T12:10:19.614Z,1.30
2019-01-10T12:12:47.597Z,1.10
2019-01-10T12:15:16.018Z,1.10
2019-01-10T12:17:44.691Z,1.20
2019-01-10T12:20:13.316Z,1.00
2019-01-10T12:22:41.640Z,1.00
2019-01-10T12:25:11.192Z,0.90
2019-01-10T12:27:39.316Z,1.00
2019-01-10T12:30:12.212Z,0.90
2019-01-10T12:32:40.486Z,0.90
2019-01-10T12:35:08.855Z,0.90
2019-01-10T12:37:37.125Z,0.80
2019-01-10T12:40:06.209Z,0.70
2019-01-10T12:42:34.388Z,0.80
2019-01-10T12:45:02.851Z,0.80
2019-01-10T12:47:45.873Z,0.80
2019-01-10T12:50:17.153Z,0.70
2019-01-10T12:52:45.277Z,0.80
2019-01-10T12:55:13.506Z,0.90
2019-01-10T12:57:41.656Z,0.80
2019-01-10T13:00:11.995Z,0.70
2019-01-10T13:02:40.071Z,0.70
2019-01-10T13:05:08.181Z,0.70
2019-01-10T13:07:36.511Z,0.70
2019-01-10T13:10:06.386Z,0.70
2019-01-10T13:12:34.594Z,0.70
2019-01-10T13:15:03.071Z,0.70
2019-01-10T13:17:31.096Z,0.70
2019-01-10T13:19:59.221Z,0.70
2019-01-10T13:22:27.408Z,0.50
2019-01-10T13:24:55.676Z,0.50
2019-01-10T13:27:23.843Z,0.50
2019-01-10T13:29:52.127Z,0.50
2019-01-10T13:32:20.310Z,0.40
2019-01-10T13:34:48.620Z,0.40
2019-01-10T13:37:39.060Z,0.40
2019-01-10T13:40:10.448Z,0.40
2019-01-10T13:42:52.384Z,0.30
2019-01-10T13:45:28.513Z,0.30
2019-01-10T13:48:57.302Z,0.40
2019-01-10T13:50:40.501Z,0.50
2019-01-10T13:53:23.618Z,0.50
2019-01-10T13:56:08.576Z,0.60
2019-01-10T13:58:45.728Z,0.50
2019-01-10T14:01:27.292Z,0.50
2019-01-10T14:07:01.823Z,0.40
2019-01-10T14:09:36.637Z,0.30
2019-01-10T14:12:04.948Z,0.20
2019-01-10T14:14:45.459Z,0.10
2019-01-10T14:17:25.022Z,0.10
2019-01-10T14:19:53.380Z,0.10
2019-01-10T14:22:31.613Z,0.00
2019-01-10T14:25:05.500Z,0.00
2019-01-10T14:27:34.665Z,-0.10
2019-01-10T14:30:40.431Z,-0.10
2019-01-10T14:33:10.912Z,-0.20
2019-01-10T14:35:39.186Z,-0.20
2019-01-10T14:38:07.408Z,-0.30
2019-01-10T14:40:35.612Z,-0.40
2019-01-10T14:43:04.227Z,-0.40
2019-01-10T14:45:33.651Z,-0.40
2019-01-10T14:48:02.203Z,-0.50
2019-01-10T14:50:30.312Z,-0.50
2019-01-10T14:52:58.399Z,-0.50
2019-01-10T14:55:26.463Z,-0.50
2019-01-10T14:57:54.777Z,-0.60
2019-01-10T15:00:25.991Z,-0.60
2019-01-10T15:02:54.117Z,-0.70
2019-01-10T15:05:22.456Z,-0.80
2019-01-10T15:07:51.099Z,-0.90
2019-01-10T15:10:19.522Z,-0.90
2019-01-10T15:12:49.060Z,-1.00
2019-01-10T15:15:19.348Z,-1.00
2019-01-10T15:17:47.700Z,-1.10
2019-01-10T15:20:26.061Z,-1.10
2019-01-10T15:22:54.514Z,-1.20
2019-01-10T15:25:22.812Z,-1.20
2019-01-10T15:27:52.244Z,-1.20
2019-01-10T15:30:22.429Z,-1.20
2019-01-10T15:32:50.690Z,-1.20
2019-01-10T15:35:20.786Z,-1.10
2019-01-10T15:37:49.407Z,-1.20
2019-01-10T15:40:19.751Z,-1.10
2019-01-10T15:42:48.179Z,-1.10
2019-01-10T15:45:17.348Z,-1.10
2019-01-10T15:47:45.879Z,-1.10
2019-01-10T15:50:17.340Z,-1.10
2019-01-10T15:52:45.880Z,-1.20
2019-01-10T15:55:17.962Z,-1.20
2019-01-10T15:57:46.394Z,-1.20
2019-01-10T16:00:16.594Z,-1.20
2019-01-10T16:02:44.885Z,-1.20
2019-01-10T16:05:13.773Z,-1.20
2019-01-10T16:07:41.852Z,-1.30
2019-01-10T16:10:11.284Z,-1.30
2019-01-10T16:12:39.536Z,-1.20
2019-01-10T16:15:09.536Z,-1.20
2019-01-10T16:17:37.556Z,-1.30
2019-01-10T16:20:06.111Z,-1.20
2019-01-10T16:22:34.415Z,-1.30
2019-01-10T16:25:02.360Z,-1.30
2019-01-10T16:27:30.552Z,-1.30
2019-01-10T16:30:00.346Z,-1.30
2019-01-10T16:32:29.905Z,-1.30
2019-01-10T16:34:58.589Z,-1.30
2019-01-10T16:37:26.781Z,-1.20
2019-01-10T16:39:56.215Z,-1.20
2019-01-10T16:42:24.388Z,-1.30
2019-01-10T16:44:52.486Z,-1.30
2019-01-10T16:47:20.881Z,-1.30
2019-01-10T16:49:50.932Z,-1.30
2019-01-10T16:52:19.100Z,-1.30
2019-01-10T16:54:47.437Z,-1.30
2019-01-10T16:57:15.563Z,-1.30
2019-01-10T16:59:43.713Z,-1.30
2019-01-10T17:02:11.814Z,-1.30
2019-01-10T17:04:40.019Z,-1.30
2019-01-10T17:07:08.076Z,-1.30
2019-01-10T17:09:36.284Z,-1.30
2019-01-10T17:12:04.639Z,-1.30
2019-01-10T17:14:32.619Z,-1.40
2019-01-10T17:17:00.732Z,-1.30
2019-01-10T17:19:28.848Z,-1.30
2019-01-10T17:21:57.125Z,-1.40
2019-01-10T17:24:25.607Z,-1.40
2019-01-10T17:26:53.803Z,-1.40
2019-01-10T17:29:22.161Z,-1.40
2019-01-10T17:31:50.173Z,-1.40
2019-01-10T17:34:18.260Z,-1.40
2019-01-10T17:36:46.400Z,-1.50
2019-01-10T17:39:14.665Z,-1.50
2019-01-10T17:41:42.856Z,-1.50
2019-01-10T17:44:11.099Z,-1.50
2019-01-10T17:46:39.232Z,-1.50
2019-01-10T17:49:07.360Z,-1.50
2019-01-10T17:51:35.574Z,-1.50
2019-01-10T17:54:03.904Z,-1.50
2019-01-10T17:56:32.692Z,-1.50
2019-01-10T17:59:01.121Z,-1.50
2019-01-10T18:01:29.451Z,-1.60
2019-01-10T18:03:57.367Z,-1.60
2019-01-10T18:06:25.502Z,-1.60
2019-01-10T18:08:53.957Z,-1.60
2019-01-10T18:11:22.127Z,-1.70
2019-01-10T18:13:50.172Z,-1.70
2019-01-10T18:16:18.278Z,-1.80
2019-01-10T18:18:46.986Z,-1.80
2019-01-10T18:21:15.448Z,-1.80
2019-01-10T18:23:44.415Z,-1.90
2019-01-10T18:26:13.046Z,-1.90
2019-01-10T18:28:41.372Z,-1.90
2019-01-10T18:31:11.135Z,-1.90
2019-01-10T18:33:39.893Z,-2.00
2019-01-10T18:36:08.505Z,-2.00
2019-01-10T18:38:36.868Z,-2.00
2019-01-10T18:41:05.541Z,-2.10
2019-01-10T18:43:35.182Z,-2.10
2019-01-10T18:46:03.957Z,-2.20
2019-01-10T18:48:32.821Z,-2.30
2019-01-10T18:51:01.318Z,-2.30
2019-01-10T18:53:30.081Z,-2.30
2019-01-10T18:55:58.828Z,-2.40
2019-01-10T18:58:27.095Z,-2.50
2019-01-10T19:00:57.117Z,-2.60
2019-01-10T19:03:25.149Z,-2.60
2019-01-10T19:05:53.721Z,-2.60
2019-01-10T19:08:22.533Z,-2.70
2019-01-10T19:10:51.062Z,-2.80
2019-01-10T19:13:19.352Z,-2.90
2019-01-10T19:15:47.835Z,-3.00
2019-01-10T19:18:16.235Z,-3.10
2019-01-10T19:20:44.890Z,-3.10
2019-01-10T19:23:13.382Z,-3.20
2019-01-10T19:25:41.876Z,-3.20
2019-01-10T19:28:10.329Z,-3.20
2019-01-10T19:30:40.350Z,-3.20
2019-01-10T19:33:09.186Z,-3.20
2019-01-10T19:35:37.570Z,-3.20
2019-01-10T19:38:06.042Z,-3.10
2019-01-10T19:40:34.709Z,-3.20
2019-01-10T19:43:02.969Z,-3.20
2019-01-10T19:45:30.998Z,-3.30
2019-01-10T19:47:59.213Z,-3.30
2019-01-10T19:50:28.069Z,-3.30
2019-01-10T19:52:56.828Z,-3.20
2019-01-10T19:55:25.148Z,-3.10
2019-01-10T19:57:53.733Z,-3.10
2019-01-10T20:00:40.080Z,-3.00
2019-01-10T20:03:09.924Z,-3.10
2019-01-10T20:05:38.252Z,-3.00
2019-01-10T20:08:07.009Z,-3.00
2019-01-10T20:10:35.457Z,-2.90
2019-01-10T20:13:04.151Z,-2.80
2019-01-10T20:15:34.952Z,-2.70
2019-01-10T20:18:03.711Z,-2.70
2019-01-10T20:20:35.591Z,-2.70
2019-01-10T20:23:06.485Z,-2.70
2019-01-10T20:25:35.078Z,-2.70
2019-01-10T20:28:03.866Z,-2.60
2019-01-10T20:30:32.084Z,-2.50
2019-01-10T20:33:00.090Z,-2.50
2019-01-10T20:35:28.420Z,-2.50
2019-01-10T20:37:57.807Z,-2.40
2019-01-10T20:40:26.047Z,-2.40
2019-01-10T20:42:54.065Z,-2.40
2019-01-10T20:45:23.868Z,-2.40
2019-01-10T20:47:53.124Z,-2.40
2019-01-10T20:50:21.445Z,-2.50
2019-01-10T20:52:49.624Z,-2.50
2019-01-10T20:55:17.853Z,-2.50
2019-01-10T20:57:52.528Z,-2.50
2019-01-10T21:00:21.357Z,-2.50
2019-01-10T21:02:50.107Z,-2.50
2019-01-10T21:05:18.375Z,-2.50
2019-01-10T21:07:49.179Z,-2.50
2019-01-10T21:10:17.555Z,-2.50
2019-01-10T21:12:46.272Z,-2.50
2019-01-10T21:15:16.908Z,-2.60
2019-01-10T21:17:46.332Z,-2.60
2019-01-10T21:20:16.164Z,-2.60
2019-01-10T21:22:44.481Z,-2.70
2019-01-10T21:25:12.660Z,-2.70
2019-01-10T21:27:40.887Z,-2.70
2019-01-10T21:30:11.420Z,-2.80
2019-01-10T21:32:41.078Z,-2.90
2019-01-10T21:35:09.565Z,-2.90
2019-01-10T21:37:37.551Z,-3.00
2019-01-10T21:40:07.660Z,-3.10
2019-01-10T21:42:35.815Z,-3.10
2019-01-10T21:45:05.321Z,-3.30
2019-01-10T21:47:34.885Z,-3.30
2019-01-10T21:50:03.458Z,-3.50
2019-01-10T21:52:31.848Z,-3.60
2019-01-10T21:55:00.229Z,-3.70
2019-01-10T21:57:30.476Z,-3.90
2019-01-10T21:59:58.473Z,-3.90
2019-01-10T22:02:26.599Z,-4.00
2019-01-10T22:04:54.831Z,-4.00
2019-01-10T22:07:23.076Z,-3.90
2019-01-10T22:09:51.305Z,-3.90
2019-01-10T22:12:19.438Z,-3.80
2019-01-10T22:14:47.909Z,-3.80
2019-01-10T22:17:15.951Z,-3.80
2019-01-10T22:19:44.156Z,-3.70
2019-01-10T22:22:12.244Z,-3.60
2019-01-10T22:24:40.449Z,-3.60
2019-01-10T22:27:08.523Z,-3.60
2019-01-10T22:29:36.859Z,-3.50
2019-01-10T22:32:04.996Z,-3.50
2019-01-10T22:34:33.080Z,-3.50
2019-01-10T22:37:01.220Z,-3.40
2019-01-10T22:39:29.538Z,-3.40
2019-01-10T22:41:57.763Z,-3.40
2019-01-10T22:44:26.109Z,-3.40
2019-01-10T22:46:54.187Z,-3.40
2019-01-10T22:49:22.284Z,-3.40
2019-01-10T22:51:50.403Z,-3.40
2019-01-10T22:54:18.499Z,-3.40
2019-01-10T22:56:46.548Z,-3.40
2019-01-10T22:59:14.798Z,-3.40
2019-01-10T23:01:48.423Z,-3.40
2019-01-10T23:04:26.116Z,-3.40
2019-01-10T23:06:54.260Z,-3.40
2019-01-10T23:09:22.279Z,-3.40
2019-01-10T23:11:51.833Z,-3.30
2019-01-10T23:14:19.934Z,-3.30
2019-01-10T23:16:47.969Z,-3.30
2019-01-10T23:19:16.193Z,-3.30
2019-01-10T23:21:44.303Z,-3.40
2019-01-10T23:24:14.179Z,-3.30
2019-01-10T23:26:53.410Z,-3.30
2019-01-10T23:29:21.878Z,-3.40
2019-01-10T23:31:50.991Z,-3.30
2019-01-10T23:34:19.019Z,-3.40
2019-01-10T23:36:51.316Z,-3.40
2019-01-10T23:39:20.612Z,-3.40
2019-01-10T23:41:49.361Z,-3.40
2019-01-10T23:44:17.772Z,-3.40
2019-01-10T23:46:45.949Z,-3.40
2019-01-10T23:49:14.195Z,-3.50
2019-01-10T23:51:42.287Z,-3.50
2019-01-10T23:54:10.615Z,-3.50
2019-01-10T23:56:38.955Z,-3.50
2019-01-10T23:59:07.308Z,-3.50
